Time;durP1;ratioP1;P1;durP2;ratioP2;P2;SDS_P1;SDS_P2;PMS_P1;PMS_P2;Temp;Humidity;BMP_temperature;BMP_pressure;BME280_temperature;BME280_humidity;BME280_pressure;Samples;Min_cycle;Max_cycle;Signal;HPM_P1;HPM_P2
2022/04/30 00:02:14;;;;;;;38.77;22.23;;;14.00;87.10;;;;;;5068936;28;20472;-73
2022/04/30 00:04:43;;;;;;;34.93;21.63;;;14.00;87.10;;;;;;5064464;28;20489;-73
2022/04/30 00:07:12;;;;;;;32.50;20.80;;;14.00;87.00;;;;;;5067823;28;20972;-72
2022/04/30 00:09:39;;;;;;;34.87;22.80;;;14.00;86.90;;;;;;5066333;28;20804;-73
2022/04/30 00:12:12;;;;;;;36.60;21.17;;;14.00;87.00;;;;;;5069637;28;20471;-73
2022/04/30 00:14:40;;;;;;;33.93;21.07;;;14.00;86.90;;;;;;5066659;28;20480;-73
2022/04/30 00:17:07;;;;;;;38.13;22.03;;;14.00;87.10;;;;;;5068627;28;20491;-73
2022/04/30 00:19:34;;;;;;;40.57;24.07;;;13.90;87.00;;;;;;5065644;28;20479;-72
2022/04/30 00:22:02;;;;;;;36.63;20.43;;;13.90;87.00;;;;;;5064917;28;20481;-72
2022/04/30 00:24:31;;;;;;;33.50;22.97;;;13.90;87.00;;;;;;5064354;28;20486;-72
2022/04/30 00:26:59;;;;;;;39.83;23.23;;;13.90;87.30;;;;;;5056361;28;21017;-71
2022/04/30 00:29:29;;;;;;;35.63;23.43;;;13.80;87.10;;;;;;5069254;28;21373;-73
2022/04/30 00:31:57;;;;;;;35.07;20.97;;;13.80;87.10;;;;;;5068340;28;20873;-73
2022/04/30 00:34:24;;;;;;;32.90;21.90;;;13.80;87.40;;;;;;5069193;28;20473;-72
2022/04/30 00:36:50;;;;;;;47.10;24.83;;;13.70;87.60;;;;;;5069776;28;20472;-71
2022/04/30 00:39:17;;;;;;;40.90;24.47;;;13.70;88.20;;;;;;5072686;28;20489;-73
2022/04/30 00:41:47;;;;;;;35.77;23.87;;;13.70;87.70;;;;;;5071201;28;20923;-71
2022/04/30 00:44:18;;;;;;;34.53;20.40;;;13.70;88.10;;;;;;5074746;28;20521;-73
2022/04/30 00:46:46;;;;;;;35.07;21.97;;;13.70;88.40;;;;;;5066532;28;21046;-72
2022/04/30 00:49:13;;;;;;;47.83;23.23;;;13.60;89.00;;;;;;5067210;28;20502;-71
2022/04/30 00:51:41;;;;;;;39.93;21.73;;;13.60;88.90;;;;;;5067503;28;20479;-73
2022/04/30 00:54:09;;;;;;;49.53;21.17;;;13.50;89.00;;;;;;5068485;28;20491;-73
2022/04/30 00:56:39;;;;;;;32.13;21.63;;;13.40;88.90;;;;;;5064787;28;20479;-74
2022/04/30 00:59:07;;;;;;;36.80;22.30;;;13.40;89.30;;;;;;5068469;28;20488;-73
2022/04/30 01:01:35;;;;;;;47.87;23.83;;;13.30;89.40;;;;;;5063578;28;20485;-73
2022/04/30 01:04:07;;;;;;;37.13;22.10;;;13.20;89.40;;;;;;5066803;28;20474;-73
2022/04/30 01:06:47;;;;;;;37.00;22.23;;;13.20;89.80;;;;;;5061648;28;20815;-72
2022/04/30 01:09:14;;;;;;;28.97;19.37;;;13.10;89.50;;;;;;5062082;28;20475;-72
2022/04/30 01:11:42;;;;;;;44.23;24.20;;;13.10;89.50;;;;;;5068265;28;20478;-73
2022/04/30 01:14:09;;;;;;;35.90;22.90;;;13.10;89.70;;;;;;5067503;28;20579;-73
2022/04/30 01:16:36;;;;;;;44.87;23.53;;;13.10;89.40;;;;;;5064615;28;20480;-74
2022/04/30 01:19:07;;;;;;;37.57;21.70;;;13.10;89.40;;;;;;5063246;28;20474;-72
2022/04/30 01:21:38;;;;;;;39.53;21.80;;;13.10;89.10;;;;;;5067193;28;20731;-73
2022/04/30 01:24:08;;;;;;;40.30;23.30;;;13.10;89.10;;;;;;5064766;28;20487;-73
2022/04/30 01:26:35;;;;;;;32.80;21.63;;;13.10;89.10;;;;;;5073845;28;20875;-73
2022/04/30 01:29:01;;;;;;;35.60;22.40;;;13.10;88.80;;;;;;5069352;28;20869;-73
2022/04/30 01:39:43;;;;;;;36.57;23.00;;;13.00;88.80;;;;;;5067989;28;21002;-73
2022/04/30 01:42:11;;;;;;;34.77;23.30;;;13.00;88.80;;;;;;5075195;28;20491;-73
2022/04/30 01:44:40;;;;;;;30.27;20.60;;;13.00;88.70;;;;;;5068514;28;20483;-73
2022/04/30 01:47:07;;;;;;;34.03;23.53;;;13.00;88.70;;;;;;5075202;28;21006;-73
2022/04/30 01:49:34;;;;;;;30.90;20.83;;;13.00;88.50;;;;;;5076781;28;21094;-72
2022/04/30 01:52:07;;;;;;;36.67;22.80;;;13.00;88.50;;;;;;5077541;28;20616;-73
2022/04/30 01:54:33;;;;;;;31.47;21.27;;;13.00;88.60;;;;;;5066437;28;20492;-71
2022/04/30 01:57:02;;;;;;;36.80;23.70;;;13.00;88.60;;;;;;5064380;28;20472;-73
2022/04/30 01:59:29;;;;;;;36.37;22.43;;;13.00;88.80;;;;;;5074071;28;20470;-72
2022/04/30 02:01:57;;;;;;;41.10;21.70;;;13.00;88.90;;;;;;5070623;28;20481;-73
2022/04/30 02:04:24;;;;;;;41.33;21.77;;;13.00;89.20;;;;;;5068191;28;20485;-72
2022/04/30 02:06:51;;;;;;;38.90;21.13;;;12.90;89.10;;;;;;5066761;28;20566;-72
2022/04/30 02:09:19;;;;;;;36.33;20.70;;;12.90;89.20;;;;;;5072403;28;20493;-73
2022/04/30 02:11:46;;;;;;;37.43;22.90;;;13.00;89.40;;;;;;5071019;28;20490;-73
2022/04/30 02:14:17;;;;;;;32.23;21.10;;;12.80;89.20;;;;;;5076132;28;21139;-72
2022/04/30 02:16:46;;;;;;;32.70;19.70;;;12.80;89.20;;;;;;5077645;28;20584;-73
2022/04/30 02:19:15;;;;;;;39.93;21.73;;;12.90;89.80;;;;;;5072535;28;20488;-74
2022/04/30 02:21:43;;;;;;;33.30;20.60;;;12.90;89.00;;;;;;5065203;28;20513;-73
2022/04/30 02:24:10;;;;;;;39.20;20.30;;;12.90;88.90;;;;;;5069702;28;20470;-73
2022/04/30 02:26:36;;;;;;;31.83;20.50;;;12.90;88.90;;;;;;5071062;28;20471;-73
2022/04/30 02:29:03;;;;;;;31.83;19.60;;;12.90;89.00;;;;;;5071440;28;20483;-73
2022/04/30 02:31:31;;;;;;;29.97;20.40;;;12.90;88.70;;;;;;5071521;28;20571;-73
2022/04/30 02:33:58;;;;;;;25.33;17.87;;;12.90;88.90;;;;;;5067436;28;20844;-75
2022/04/30 02:36:26;;;;;;;34.27;20.80;;;12.90;88.70;;;;;;5073669;28;20490;-73
2022/04/30 02:38:55;;;;;;;29.53;17.90;;;12.80;88.80;;;;;;5072840;28;20485;-73
2022/04/30 02:41:23;;;;;;;28.70;17.90;;;12.90;88.60;;;;;;5074761;28;20475;-72
2022/04/30 02:43:50;;;;;;;35.60;18.40;;;12.90;88.40;;;;;;5075334;28;20899;-72
2022/04/30 02:46:17;;;;;;;31.23;19.80;;;12.80;88.30;;;;;;5073869;28;20485;-72
2022/04/30 02:48:45;;;;;;;28.67;19.50;;;12.80;88.50;;;;;;5070613;28;20483;-73
2022/04/30 02:51:12;;;;;;;33.67;18.97;;;12.80;88.60;;;;;;5071501;28;20484;-72
2022/04/30 02:53:39;;;;;;;25.23;17.90;;;12.80;88.60;;;;;;5077847;28;20481;-73
2022/04/30 02:56:06;;;;;;;30.70;20.07;;;12.70;88.50;;;;;;5067957;28;20485;-74
2022/04/30 03:01:19;;;;;;;30.90;19.30;;;12.80;88.90;;;;;;5070743;28;20530;-73
2022/04/30 03:03:47;;;;;;;28.07;18.40;;;12.80;88.60;;;;;;5066706;28;21032;-73
2022/04/30 03:06:14;;;;;;;26.20;18.40;;;12.80;89.10;;;;;;5076396;28;20477;-73
2022/04/30 03:08:41;;;;;;;29.63;16.20;;;12.80;88.70;;;;;;5069991;28;20567;-72
2022/04/30 03:11:08;;;;;;;28.93;17.53;;;12.80;88.50;;;;;;5062886;28;20465;-72
2022/04/30 03:13:36;;;;;;;27.47;16.60;;;12.70;88.30;;;;;;5063222;28;20507;-72
2022/04/30 03:21:48;;;;;;;30.50;19.40;;;12.70;88.60;;;;;;5070587;28;20482;-71
2022/04/30 03:24:16;;;;;;;28.83;16.40;;;12.70;88.50;;;;;;5064394;28;20939;-72
2022/04/30 03:26:44;;;;;;;37.17;18.00;;;12.70;88.40;;;;;;5058423;28;21020;-73
2022/04/30 03:29:10;;;;;;;26.67;16.70;;;12.60;88.60;;;;;;5084312;28;20555;-72
2022/04/30 03:31:39;;;;;;;27.77;17.03;;;12.60;88.70;;;;;;5073092;28;20555;-73
2022/04/30 03:34:08;;;;;;;26.00;17.00;;;12.60;88.80;;;;;;5047956;28;20532;-73
2022/04/30 03:36:35;;;;;;;30.50;18.20;;;12.60;89.30;;;;;;5067128;28;20553;-73
2022/04/30 03:39:03;;;;;;;34.97;19.07;;;12.60;89.50;;;;;;5071972;28;20777;-73
2022/04/30 03:41:29;;;;;;;22.43;15.90;;;12.60;90.00;;;;;;5068806;28;20491;-73
2022/04/30 03:43:58;;;;;;;21.67;16.00;;;12.70;89.40;;;;;;5073820;28;20832;-73
2022/04/30 03:46:24;;;;;;;23.03;15.07;;;12.70;89.30;;;;;;5058837;28;20882;-73
2022/04/30 03:48:53;;;;;;;26.67;16.67;;;12.70;89.70;;;;;;5084871;28;20974;-73
2022/04/30 03:51:22;;;;;;;22.17;16.63;;;12.70;90.00;;;;;;5076270;28;20488;-73
2022/04/30 03:53:49;;;;;;;25.67;18.10;;;12.70;89.70;;;;;;5077679;28;20500;-72
2022/04/30 03:56:17;;;;;;;24.70;16.93;;;12.60;89.50;;;;;;5075926;28;20477;-72
2022/04/30 03:58:44;;;;;;;26.57;16.80;;;12.60;89.20;;;;;;5066600;28;20575;-72
2022/04/30 04:01:12;;;;;;;24.20;17.07;;;12.60;89.30;;;;;;5074599;28;21004;-73
2022/04/30 04:03:39;;;;;;;24.27;15.97;;;12.60;89.50;;;;;;5066563;28;20514;-73
2022/04/30 04:06:06;;;;;;;23.73;14.30;;;13.30;90.30;;;;;;5067020;28;20998;-74
2022/04/30 04:08:35;;;;;;;23.00;16.00;;;12.80;90.30;;;;;;5068155;28;22025;-73
2022/04/30 04:11:02;;;;;;;25.60;16.10;;;12.60;90.30;;;;;;5065214;28;20564;-74
2022/04/30 04:18:57;;;;;;;28.57;17.67;;;12.60;90.00;;;;;;5067440;28;20497;-73
2022/04/30 04:21:24;;;;;;;23.20;15.97;;;12.60;90.00;;;;;;5064842;28;20479;-72
2022/04/30 04:26:36;;;;;;;25.10;16.07;;;12.60;90.00;;;;;;5068032;28;20481;-73
2022/04/30 04:29:03;;;;;;;28.63;17.20;;;12.60;90.00;;;;;;5073900;28;20488;-73
2022/04/30 04:31:30;;;;;;;33.40;18.30;;;12.70;90.10;;;;;;5076398;28;20481;-73
2022/04/30 04:33:57;;;;;;;27.40;16.70;;;12.70;90.20;;;;;;5069520;28;20484;-72
2022/04/30 04:36:23;;;;;;;22.67;15.80;;;12.70;90.20;;;;;;5068418;28;20847;-72
2022/04/30 04:38:51;;;;;;;30.87;18.23;;;12.60;90.30;;;;;;5067062;28;20489;-72
2022/04/30 04:41:18;;;;;;;22.03;17.03;;;12.60;90.30;;;;;;5063582;28;20984;-73
2022/04/30 04:43:45;;;;;;;26.80;18.70;;;12.60;90.20;;;;;;5071918;28;20492;-72
2022/04/30 04:46:12;;;;;;;25.53;16.33;;;12.60;90.10;;;;;;5069598;28;21010;-73
2022/04/30 04:48:39;;;;;;;25.00;16.67;;;12.50;90.20;;;;;;5068965;28;20488;-73
2022/04/30 04:51:07;;;;;;;30.90;18.10;;;12.60;90.20;;;;;;5068597;28;20480;-73
2022/04/30 04:53:33;;;;;;;27.27;17.47;;;12.60;90.20;;;;;;5070410;28;20908;-73
2022/04/30 04:56:03;;;;;;;25.47;17.97;;;12.60;90.20;;;;;;5061535;28;20489;-73
2022/04/30 04:58:30;;;;;;;26.93;17.30;;;12.60;90.30;;;;;;5075767;28;20475;-73
2022/04/30 05:00:57;;;;;;;23.60;17.37;;;12.70;90.20;;;;;;5072893;28;20478;-73
2022/04/30 05:03:23;;;;;;;29.00;17.37;;;12.60;90.20;;;;;;5068080;28;20500;-73
2022/04/30 05:05:51;;;;;;;34.97;19.17;;;12.60;90.30;;;;;;5074059;28;20490;-71
2022/04/30 05:08:18;;;;;;;25.13;17.17;;;12.60;90.20;;;;;;5067910;28;20481;-73
2022/04/30 05:10:45;;;;;;;24.97;15.97;;;12.60;90.30;;;;;;5071830;28;20490;-73
2022/04/30 05:13:13;;;;;;;26.53;16.57;;;12.60;90.30;;;;;;5063760;28;20491;-73
2022/04/30 05:15:40;;;;;;;28.37;17.07;;;12.60;90.30;;;;;;5085497;28;20898;-73
2022/04/30 05:18:08;;;;;;;32.80;17.57;;;12.60;90.30;;;;;;5065201;28;20481;-73
2022/04/30 05:20:35;;;;;;;25.13;17.03;;;12.60;90.30;;;;;;5072537;28;20501;-73
2022/04/30 05:23:02;;;;;;;28.70;17.40;;;12.60;90.30;;;;;;5062822;28;20982;-73
2022/04/30 05:25:29;;;;;;;26.00;17.40;;;12.60;90.30;;;;;;5061082;28;20488;-72
2022/04/30 05:27:56;;;;;;;26.50;17.60;;;12.60;90.20;;;;;;5069911;28;20490;-72
2022/04/30 05:30:24;;;;;;;31.23;18.50;;;12.60;90.20;;;;;;5070228;28;20962;-73
2022/04/30 05:32:51;;;;;;;23.70;14.70;;;12.60;90.30;;;;;;5068424;28;20476;-72
2022/04/30 05:35:18;;;;;;;28.70;16.07;;;12.60;90.20;;;;;;5069633;28;20742;-73
2022/04/30 05:37:45;;;;;;;28.37;17.37;;;12.60;90.30;;;;;;5067296;28;20572;-72
2022/04/30 05:40:12;;;;;;;35.23;18.67;;;12.60;90.30;;;;;;5067611;28;20482;-73
2022/04/30 05:42:38;;;;;;;38.10;17.80;;;12.50;90.30;;;;;;5068734;28;20488;-73
2022/04/30 05:45:07;;;;;;;32.30;17.77;;;12.50;90.40;;;;;;5067891;28;20474;-73
2022/04/30 05:47:36;;;;;;;25.40;16.10;;;12.50;90.40;;;;;;5062934;28;20991;-72
2022/04/30 05:50:04;;;;;;;32.60;18.57;;;12.60;90.40;;;;;;5064806;28;20998;-73
2022/04/30 05:52:31;;;;;;;25.40;17.13;;;12.50;90.40;;;;;;5067100;28;20501;-73
2022/04/30 05:54:57;;;;;;;27.30;17.83;;;12.60;90.50;;;;;;5067362;28;20487;-73
2022/04/30 05:57:24;;;;;;;31.73;21.70;;;12.60;90.40;;;;;;5069021;28;20484;-73
2022/04/30 05:59:50;;;;;;;30.17;19.80;;;12.60;90.40;;;;;;5067882;28;20479;-72
2022/04/30 06:02:17;;;;;;;32.77;21.33;;;12.60;90.40;;;;;;5071444;28;20485;-72
2022/04/30 06:04:46;;;;;;;25.70;18.43;;;12.60;90.40;;;;;;5051002;28;20475;-73
2022/04/30 06:07:12;;;;;;;25.13;17.17;;;12.60;90.40;;;;;;5065437;28;20482;-73
2022/04/30 06:09:39;;;;;;;28.70;20.20;;;12.60;90.50;;;;;;5069578;28;20498;-73
2022/04/30 06:12:07;;;;;;;29.70;18.20;;;12.70;90.50;;;;;;5069700;28;20489;-74
2022/04/30 06:14:33;;;;;;;34.00;20.10;;;12.70;90.40;;;;;;5078593;28;20483;-74
2022/04/30 06:17:00;;;;;;;32.20;19.80;;;12.70;90.60;;;;;;5071338;28;20482;-73
2022/04/30 06:19:27;;;;;;;32.53;17.97;;;12.80;90.60;;;;;;5072390;28;20482;-72
2022/04/30 06:21:55;;;;;;;40.80;21.00;;;12.80;90.60;;;;;;5067282;28;21341;-73
2022/04/30 06:24:22;;;;;;;33.13;18.93;;;12.80;90.60;;;;;;5068566;28;20483;-73
2022/04/30 06:26:49;;;;;;;33.50;19.53;;;12.90;90.50;;;;;;5072393;28;20490;-73
2022/04/30 06:29:16;;;;;;;28.03;18.70;;;12.90;90.50;;;;;;5072096;28;20485;-71
2022/04/30 06:31:43;;;;;;;35.93;21.13;;;12.90;90.40;;;;;;5071616;28;20479;-73
2022/04/30 06:34:10;;;;;;;33.60;20.87;;;13.00;90.60;;;;;;5070857;28;20480;-73
2022/04/30 06:36:36;;;;;;;32.87;21.57;;;13.10;90.50;;;;;;5066645;28;20839;-74
2022/04/30 06:39:04;;;;;;;29.77;20.40;;;13.10;90.60;;;;;;5075311;28;20494;-74
2022/04/30 06:41:31;;;;;;;34.23;22.33;;;13.10;90.20;;;;;;5073916;28;20490;-74
2022/04/30 06:43:58;;;;;;;34.20;19.90;;;13.20;90.40;;;;;;5073978;28;20475;-71
2022/04/30 06:46:25;;;;;;;30.13;21.77;;;13.30;90.30;;;;;;5066578;28;20486;-74
2022/04/30 06:48:51;;;;;;;31.47;19.30;;;13.40;90.60;;;;;;5066182;28;21092;-73
2022/04/30 06:51:18;;;;;;;33.60;21.20;;;13.50;90.00;;;;;;5073560;28;20532;-71
2022/04/30 06:59:15;;;;;;;31.90;20.83;;;13.80;90.00;;;;;;5073415;28;20548;-73
2022/04/30 07:01:49;;;;;;;33.43;20.07;;;14.10;90.30;;;;;;5067557;28;20492;-72
2022/04/30 07:04:17;;;;;;;29.33;18.80;;;14.50;90.20;;;;;;5078966;28;20492;-73
2022/04/30 07:06:46;;;;;;;32.93;22.17;;;14.70;89.20;;;;;;5065241;28;21028;-73
2022/04/30 07:09:13;;;;;;;31.20;21.00;;;14.80;89.10;;;;;;5072709;28;20844;-73
2022/04/30 07:11:41;;;;;;;37.57;22.33;;;14.90;88.60;;;;;;5063711;28;20571;-73
2022/04/30 07:14:08;;;;;;;31.40;21.20;;;14.90;87.70;;;;;;5071054;28;20993;-71
2022/04/30 07:16:36;;;;;;;36.87;22.50;;;14.80;87.00;;;;;;5070633;28;20493;-72
2022/04/30 07:19:03;;;;;;;31.97;20.33;;;14.70;87.30;;;;;;5063574;28;20483;-75
2022/04/30 07:21:31;;;;;;;30.70;20.30;;;14.70;88.20;;;;;;5073982;28;20485;-73
2022/04/30 07:23:58;;;;;;;34.07;22.80;;;14.60;88.10;;;;;;5067913;28;20488;-73
2022/04/30 07:26:24;;;;;;;34.27;22.43;;;14.50;88.70;;;;;;5066820;28;20491;-71
2022/04/30 07:28:52;;;;;;;33.30;22.70;;;14.50;88.30;;;;;;5066227;28;20490;-74
2022/04/30 07:31:19;;;;;;;38.27;22.70;;;14.50;88.40;;;;;;5077904;28;20825;-73
2022/04/30 07:33:48;;;;;;;37.03;21.77;;;14.50;88.00;;;;;;5065218;28;20480;-74
2022/04/30 07:36:14;;;;;;;33.67;22.40;;;14.40;87.90;;;;;;5074362;28;20486;-72
2022/04/30 07:38:41;;;;;;;34.17;23.03;;;14.40;87.90;;;;;;5069350;28;20496;-73
2022/04/30 07:41:08;;;;;;;32.80;22.40;;;14.40;87.90;;;;;;5068965;28;20851;-71
2022/04/30 07:43:34;;;;;;;40.53;23.23;;;14.40;89.10;;;;;;5068937;28;20480;-72
2022/04/30 07:46:02;;;;;;;38.53;23.20;;;14.40;89.70;;;;;;5070542;28;20470;-72
2022/04/30 07:48:29;;;;;;;35.53;23.77;;;14.50;88.80;;;;;;5062023;28;21094;-72
2022/04/30 07:50:57;;;;;;;39.43;22.93;;;14.40;88.10;;;;;;5072887;28;20491;-73
2022/04/30 07:53:25;;;;;;;33.67;22.40;;;14.40;88.30;;;;;;5070046;28;20502;-74
2022/04/30 07:55:53;;;;;;;36.07;22.63;;;14.40;88.30;;;;;;5072210;27;20476;-72
2022/04/30 07:58:20;;;;;;;40.67;24.90;;;14.40;88.00;;;;;;5069354;28;20901;-73
2022/04/30 08:00:48;;;;;;;36.90;24.77;;;14.40;88.70;;;;;;5061010;28;20842;-71
2022/04/30 08:03:16;;;;;;;36.83;23.17;;;14.40;88.50;;;;;;5084741;28;20496;-72
2022/04/30 08:05:43;;;;;;;37.73;25.00;;;14.40;87.90;;;;;;5066487;28;20992;-73
2022/04/30 08:08:10;;;;;;;35.80;23.57;;;14.40;88.40;;;;;;5068927;28;20476;-72
2022/04/30 08:10:37;;;;;;;36.33;23.30;;;14.50;89.20;;;;;;5069574;28;20496;-73
2022/04/30 08:13:03;;;;;;;38.20;25.00;;;14.60;88.60;;;;;;5074909;28;20597;-74
2022/04/30 08:15:30;;;;;;;37.57;24.17;;;14.60;88.10;;;;;;5063778;28;21250;-72
2022/04/30 08:17:57;;;;;;;37.53;24.23;;;14.70;88.50;;;;;;5076583;28;20983;-72
2022/04/30 08:20:25;;;;;;;36.53;25.70;;;14.70;88.30;;;;;;5072562;28;20478;-74
2022/04/30 08:22:52;;;;;;;32.27;23.50;;;14.70;89.00;;;;;;5069191;28;21560;-73
2022/04/30 08:25:19;;;;;;;36.63;23.53;;;14.80;88.80;;;;;;5071562;28;20476;-75
2022/04/30 08:27:46;;;;;;;38.50;24.47;;;14.90;88.40;;;;;;5068883;28;20991;-75
2022/04/30 08:30:15;;;;;;;41.43;24.77;;;14.90;88.00;;;;;;5059620;28;20486;-73
2022/04/30 08:32:43;;;;;;;38.17;25.87;;;14.90;88.30;;;;;;5067813;28;20480;-74
2022/04/30 08:35:10;;;;;;;39.03;24.80;;;15.00;88.20;;;;;;5070875;28;20498;-71
2022/04/30 08:37:39;;;;;;;39.90;25.20;;;15.00;87.80;;;;;;5077626;28;20781;-72
2022/04/30 08:40:07;;;;;;;33.70;24.37;;;15.00;87.60;;;;;;5066097;28;20596;-72
2022/04/30 08:42:34;;;;;;;39.37;25.40;;;15.10;88.00;;;;;;5067639;28;20481;-71
2022/04/30 08:45:03;;;;;;;37.40;25.07;;;15.10;87.80;;;;;;5066174;28;20846;-73
2022/04/30 08:47:30;;;;;;;34.30;23.63;;;15.10;88.20;;;;;;5067437;28;20965;-72
2022/04/30 08:49:59;;;;;;;38.80;24.27;;;15.10;87.50;;;;;;5066764;28;20672;-72
2022/04/30 08:52:26;;;;;;;37.30;25.53;;;15.00;87.50;;;;;;5070760;28;20488;-74
2022/04/30 08:54:54;;;;;;;41.67;26.00;;;15.00;87.50;;;;;;5071329;28;20486;-72
2022/04/30 08:57:20;;;;;;;32.13;23.60;;;15.00;87.50;;;;;;5067924;28;20494;-72
2022/04/30 08:59:47;;;;;;;35.93;24.90;;;15.00;87.10;;;;;;5066122;28;20894;-71
2022/04/30 09:02:14;;;;;;;32.67;23.10;;;15.00;87.20;;;;;;5066812;28;20867;-72
2022/04/30 09:04:45;;;;;;;34.57;24.50;;;15.10;87.20;;;;;;5062120;28;21170;-73
2022/04/30 09:07:15;;;;;;;39.60;26.63;;;15.00;87.60;;;;;;5066855;28;21184;-73
2022/04/30 09:09:42;;;;;;;33.67;24.70;;;15.00;86.90;;;;;;5067941;28;20585;-73
2022/04/30 09:12:13;;;;;;;32.10;23.20;;;15.00;87.30;;;;;;5064704;28;20511;-71
2022/04/30 09:14:41;;;;;;;37.17;24.47;;;15.00;87.70;;;;;;5070043;28;20474;-71
2022/04/30 09:17:09;;;;;;;35.30;23.97;;;15.00;87.20;;;;;;5068537;28;20477;-72
2022/04/30 09:19:47;;;;;;;36.23;25.57;;;15.00;87.70;;;;;;5070679;28;20915;-74
2022/04/30 09:22:15;;;;;;;34.40;23.87;;;15.10;88.20;;;;;;5062213;28;20492;-72
2022/04/30 09:24:48;;;;;;;37.13;24.40;;;15.10;86.80;;;;;;5060783;28;20488;-74
2022/04/30 09:27:17;;;;;;;32.27;22.43;;;15.10;87.30;;;;;;5074073;28;20594;-72
2022/04/30 09:29:44;;;;;;;33.57;23.93;;;15.10;86.90;;;;;;5068631;28;21303;-73
2022/04/30 09:32:17;;;;;;;31.77;21.23;;;15.20;87.30;;;;;;5071197;28;20484;-72
2022/04/30 09:37:46;;;;;;;30.30;23.07;;;15.20;86.80;;;;;;5070537;28;20488;-72
2022/04/30 09:40:23;;;;;;;31.17;21.93;;;15.20;86.50;;;;;;5057520;28;20568;-73
2022/04/30 09:42:52;;;;;;;30.93;22.27;;;15.20;88.10;;;;;;5073538;28;20500;-73
2022/04/30 09:45:30;;;;;;;32.57;22.00;;;15.30;86.90;;;;;;5064349;28;20479;-73
2022/04/30 09:47:58;;;;;;;29.30;22.20;;;15.40;86.80;;;;;;5068385;28;20531;-72
2022/04/30 09:55:57;;;;;;;32.27;22.40;;;15.20;86.20;;;;;;5070648;28;20491;-73
2022/04/30 09:58:27;;;;;;;30.17;20.77;;;15.20;86.30;;;;;;5080118;28;20483;-73
2022/04/30 10:01:00;;;;;;;30.90;21.70;;;15.30;86.20;;;;;;5070742;28;20473;-71
2022/04/30 10:03:30;;;;;;;32.40;22.40;;;15.30;86.90;;;;;;5071141;28;20469;-74
2022/04/30 10:06:01;;;;;;;33.10;23.07;;;15.30;86.90;;;;;;5072105;28;20475;-74
2022/04/30 10:08:30;;;;;;;32.00;23.03;;;15.30;85.80;;;;;;5071414;28;20563;-71
2022/04/30 10:11:14;;;;;;;31.80;21.87;;;15.40;86.10;;;;;;5052233;28;20466;-73
2022/04/30 10:13:57;;;;;;;34.03;23.17;;;15.40;85.60;;;;;;5068489;28;20489;-74
2022/04/30 10:16:28;;;;;;;38.50;22.57;;;15.40;86.30;;;;;;5068296;28;20476;-73
2022/04/30 10:19:06;;;;;;;33.50;23.60;;;15.10;85.90;;;;;;5070882;28;21091;-74
2022/04/30 10:21:33;;;;;;;35.00;24.53;;;15.30;86.20;;;;;;5055657;28;20486;-73
2022/04/30 10:24:05;;;;;;;34.57;23.77;;;15.30;87.20;;;;;;5078417;28;20506;-75
2022/04/30 10:26:32;;;;;;;33.93;22.27;;;15.40;87.10;;;;;;5066294;28;20695;-73
2022/04/30 10:29:02;;;;;;;29.63;22.20;;;15.50;86.80;;;;;;5065089;28;20488;-73
2022/04/30 10:31:28;;;;;;;36.60;24.40;;;15.50;85.90;;;;;;5069110;28;20481;-73
2022/04/30 10:33:55;;;;;;;40.33;23.73;;;15.60;85.80;;;;;;5073760;28;21081;-74
2022/04/30 10:36:23;;;;;;;34.63;23.07;;;15.50;84.70;;;;;;5069070;28;20485;-71
2022/04/30 10:38:59;;;;;;;31.60;22.67;;;15.50;85.50;;;;;;5067616;28;20497;-72
2022/04/30 10:41:27;;;;;;;31.17;21.57;;;15.50;85.00;;;;;;5073059;28;20989;-72
2022/04/30 10:44:02;;;;;;;32.37;22.47;;;15.60;85.40;;;;;;5069068;28;20886;-72
2022/04/30 10:46:37;;;;;;;31.77;20.87;;;15.70;85.60;;;;;;5067687;28;20467;-76
2022/04/30 10:49:06;;;;;;;32.67;22.80;;;15.70;84.60;;;;;;5067224;28;20477;-71
2022/04/30 10:51:38;;;;;;;28.27;20.63;;;15.70;85.30;;;;;;5054842;28;20485;-72
2022/04/30 10:54:09;;;;;;;29.10;18.07;;;15.80;84.70;;;;;;5057627;28;21046;-70
2022/04/30 10:56:36;;;;;;;29.17;19.57;;;15.70;83.50;;;;;;5063152;28;20992;-72
2022/04/30 10:59:05;;;;;;;35.93;22.37;;;15.70;85.40;;;;;;5069937;28;21025;-75
2022/04/30 11:01:32;;;;;;;27.10;20.50;;;15.80;85.10;;;;;;5066077;28;21833;-71
2022/04/30 11:04:00;;;;;;;26.63;19.60;;;15.90;84.50;;;;;;5074753;28;20477;-73
2022/04/30 11:06:29;;;;;;;26.03;19.67;;;16.00;84.20;;;;;;5062945;28;20474;-73
2022/04/30 11:08:58;;;;;;;29.20;20.90;;;16.00;83.00;;;;;;5071191;28;20569;-73
2022/04/30 11:11:24;;;;;;;26.23;19.13;;;16.00;84.30;;;;;;5055478;28;21014;-74
2022/04/30 11:13:56;;;;;;;26.33;19.63;;;15.90;82.80;;;;;;5084998;28;20904;-74
2022/04/30 11:16:30;;;;;;;25.57;18.93;;;16.00;84.60;;;;;;5066300;28;20487;-72
2022/04/30 11:19:03;;;;;;;27.23;20.70;;;16.10;85.50;;;;;;5070772;28;20481;-72
2022/04/30 11:21:34;;;;;;;27.83;19.70;;;16.10;83.80;;;;;;5063618;28;20478;-73
2022/04/30 11:24:00;;;;;;;25.83;19.40;;;16.30;84.70;;;;;;5071201;28;20492;-75
2022/04/30 11:26:29;;;;;;;27.00;19.00;;;16.30;83.50;;;;;;5068900;28;20478;-73
2022/04/30 11:28:56;;;;;;;26.67;19.50;;;16.40;83.20;;;;;;5064914;28;20518;-74
2022/04/30 11:31:22;;;;;;;25.77;19.73;;;16.60;84.00;;;;;;5069412;28;20490;-72
2022/04/30 11:33:51;;;;;;;25.73;19.43;;;16.80;84.20;;;;;;5065631;28;20493;-74
2022/04/30 11:36:19;;;;;;;24.20;17.83;;;16.80;82.50;;;;;;5071986;28;20481;-73
2022/04/30 11:38:54;;;;;;;28.00;20.00;;;16.80;81.80;;;;;;5063007;28;20497;-75
2022/04/30 11:41:22;;;;;;;26.33;19.13;;;16.80;82.50;;;;;;5072347;28;20718;-72
2022/04/30 11:44:00;;;;;;;26.13;19.07;;;16.90;82.00;;;;;;5067541;28;20565;-72
2022/04/30 11:46:27;;;;;;;23.37;16.57;;;16.90;81.70;;;;;;5073413;28;20856;-72
2022/04/30 11:48:56;;;;;;;28.43;18.50;;;16.90;81.10;;;;;;5062812;28;20479;-71
2022/04/30 11:51:24;;;;;;;26.03;18.00;;;16.90;81.90;;;;;;5069168;28;20494;-73
2022/04/30 11:53:51;;;;;;;23.40;17.30;;;17.00;82.80;;;;;;5065737;28;20493;-72
2022/04/30 11:56:18;;;;;;;20.50;17.10;;;17.10;82.70;;;;;;5071644;28;20516;-71
2022/04/30 11:58:45;;;;;;;21.80;16.67;;;17.20;81.60;;;;;;5073776;28;20497;-70
2022/04/30 12:01:22;;;;;;;22.30;16.53;;;17.20;81.00;;;;;;5057221;28;20852;-73
2022/04/30 12:03:56;;;;;;;22.10;16.53;;;17.50;81.50;;;;;;5071649;28;20518;-73
2022/04/30 12:06:24;;;;;;;20.60;15.83;;;17.50;80.20;;;;;;5066493;28;21449;-74
2022/04/30 12:08:51;;;;;;;23.73;16.60;;;17.70;79.80;;;;;;5065146;28;20526;-74
2022/04/30 12:11:18;;;;;;;23.53;16.90;;;18.00;81.30;;;;;;5078793;28;20481;-73
2022/04/30 12:13:57;;;;;;;19.10;15.37;;;18.10;80.20;;;;;;5067628;28;20483;-74
2022/04/30 12:16:23;;;;;;;21.73;15.53;;;18.20;79.10;;;;;;5071205;28;20536;-73
2022/04/30 12:24:44;;;;;;;19.63;14.43;;;18.40;78.70;;;;;;5069894;28;20501;-75
2022/04/30 12:27:19;;;;;;;18.50;15.00;;;18.40;79.30;;;;;;5054397;28;20481;-71
2022/04/30 12:29:47;;;;;;;17.67;14.73;;;18.20;79.30;;;;;;5046137;28;20473;-74
2022/04/30 12:32:17;;;;;;;20.10;14.13;;;18.20;78.00;;;;;;5067631;28;20958;-73
2022/04/30 12:34:44;;;;;;;23.83;15.83;;;18.40;78.20;;;;;;5061847;28;20481;-73
2022/04/30 12:37:12;;;;;;;18.47;15.40;;;18.60;78.30;;;;;;5062880;28;20474;-74
2022/04/30 12:39:40;;;;;;;19.50;15.23;;;18.90;79.10;;;;;;5052763;28;20516;-72
2022/04/30 12:42:11;;;;;;;22.27;15.37;;;19.00;78.30;;;;;;5067633;28;20790;-72
2022/04/30 12:44:37;;;;;;;18.50;13.80;;;19.20;77.60;;;;;;5064130;28;20482;-72
2022/04/30 12:47:05;;;;;;;18.60;14.13;;;19.30;77.80;;;;;;5066172;28;20470;-72
2022/04/30 12:49:32;;;;;;;18.53;14.33;;;19.40;77.00;;;;;;5064227;28;20561;-76
2022/04/30 12:51:59;;;;;;;16.47;13.00;;;19.50;76.40;;;;;;5065175;28;20482;-75
2022/04/30 12:54:28;;;;;;;21.43;14.47;;;19.50;75.70;;;;;;5064438;28;20684;-75
2022/04/30 12:56:56;;;;;;;18.47;13.17;;;19.30;74.70;;;;;;5060772;28;20490;-73
2022/04/30 12:59:25;;;;;;;17.07;13.37;;;19.10;74.90;;;;;;5067219;28;20636;-72
2022/04/30 13:01:52;;;;;;;19.80;14.97;;;18.80;75.60;;;;;;5064820;28;20479;-75
2022/04/30 13:04:19;;;;;;;19.60;14.53;;;18.60;77.80;;;;;;5068194;28;20477;-74
2022/04/30 13:06:45;;;;;;;16.00;12.93;;;18.50;76.90;;;;;;5063871;28;20554;-73
2022/04/30 13:14:47;;;;;;;15.67;13.57;;;18.80;79.20;;;;;;4991538;28;20487;-73
2022/04/30 13:17:14;;;;;;;17.73;12.73;;;19.10;78.90;;;;;;5070308;28;20481;-73
2022/04/30 13:19:41;;;;;;;17.03;13.37;;;19.10;76.00;;;;;;5060366;28;20475;-72
2022/04/30 13:22:08;;;;;;;17.53;14.27;;;19.20;77.10;;;;;;5072976;28;20556;-71
2022/04/30 13:24:35;;;;;;;18.17;13.90;;;19.20;76.50;;;;;;5066533;28;20982;-74